Time;durP1;ratioP1;P1;durP2;ratioP2;P2;SDS_P1;SDS_P2;PMS_P1;PMS_P2;Temp;Humidity;BMP_temperature;BMP_pressure;BME280_temperature;BME280_humidity;BME280_pressure;Samples;Min_cycle;Max_cycle;Signal;HPM_P1;HPM_P2
2021/08/04 06:26:16;;;;;;;15.25;9.52;;;;;;;30.01;40.88;99521.94;5027375;28;1314446;-79
2021/08/04 06:28:43;;;;;;;15.57;10.68;;;;;;;30.28;40.13;99554.56;5074531;28;20040;-80
2021/08/04 06:31:08;;;;;;;14.13;10.30;;;;;;;29.78;39.83;99447.63;5078050;28;20074;-80
2021/08/04 06:33:34;;;;;;;13.82;9.90;;;;;;;30.06;39.20;99486.47;5097704;28;20028;-78
2021/08/04 06:35:59;;;;;;;15.95;10.23;;;;;;;30.21;39.21;99509.81;5086162;28;20060;-79
2021/08/04 06:38:24;;;;;;;10.00;9.00;;;;;;;30.42;38.80;99537.38;5077044;28;20074;-81
2021/08/04 06:40:50;;;;;;;14.00;9.50;;;;;;;30.45;39.04;99536.75;5081845;28;20028;-80
2021/08/04 06:43:17;;;;;;;13.52;10.38;;;;;;;30.19;39.07;99506.59;5094400;28;20114;-81
2021/08/04 06:45:42;;;;;;;11.90;10.05;;;;;;;30.63;39.21;99558.41;5090215;28;20467;-81
2021/08/04 06:48:09;;;;;;;12.57;10.35;;;;;;;30.24;39.49;99503.75;5087918;28;20116;-79
2021/08/04 06:50:35;;;;;;;13.05;9.95;;;;;;;30.37;39.46;99519.22;5084503;28;20052;-79
2021/08/04 06:53:00;;;;;;;15.73;10.27;;;;;;;30.57;39.64;99550.66;5087934;28;20154;-79
2021/08/04 06:55:26;;;;;;;11.68;9.98;;;;;;;30.43;39.44;99504.38;5084879;28;20050;-78
2021/08/04 06:57:51;;;;;;;11.77;10.27;;;;;;;30.82;39.45;99555.50;5089870;28;20078;-80
2021/08/04 07:00:16;;;;;;;11.27;9.75;;;;;;;30.61;39.86;99525.22;5090149;28;20031;-78
2021/08/04 07:02:42;;;;;;;14.85;9.95;;;;;;;30.90;39.67;99562.13;5089987;28;20548;-79
2021/08/04 07:05:08;;;;;;;16.15;10.48;;;;;;;30.91;39.83;99559.06;5091012;28;20035;-79
2021/08/04 07:07:33;;;;;;;12.73;9.23;;;;;;;31.02;39.13;99558.81;5077633;28;20089;-79
2021/08/04 07:09:59;;;;;;;11.65;9.38;;;;;;;30.80;38.87;99524.22;5093104;28;20020;-78
2021/08/04 07:12:24;;;;;;;18.58;11.35;;;;;;;31.01;39.29;99554.47;5091505;28;20020;-80
2021/08/04 07:14:51;;;;;;;16.17;11.50;;;;;;;31.03;39.62;99561.22;5091466;28;20035;-80
2021/08/04 07:17:16;;;;;;;13.50;11.50;;;;;;;30.75;39.36;99511.53;5093594;28;20036;-80
2021/08/04 07:19:42;;;;;;;14.68;10.98;;;;;;;30.65;39.20;99509.84;5092275;28;20503;-80
2021/08/04 07:22:07;;;;;;;15.80;11.13;;;;;;;30.94;39.49;99536.63;5092202;28;20035;-78
2021/08/04 07:24:33;;;;;;;13.63;10.80;;;;;;;31.02;39.39;99526.88;5092585;28;20178;-78
2021/08/04 07:26:58;;;;;;;16.83;11.02;;;;;;;31.33;39.03;99539.75;5092872;28;20412;-78
2021/08/04 07:29:24;;;;;;;12.80;10.68;;;;;;;31.08;38.54;99490.19;5092101;28;20028;-79
2021/08/04 07:31:50;;;;;;;17.35;10.68;;;;;;;31.51;38.15;99533.22;5091783;28;20028;-81
2021/08/04 07:34:21;;;;;;;17.83;11.07;;;;;;;31.61;38.46;99541.94;5092902;28;20465;-79
2021/08/04 07:36:47;;;;;;;14.18;10.30;;;;;;;31.66;38.35;99538.25;5092296;28;20081;-79
2021/08/04 07:39:12;;;;;;;15.45;10.50;;;;;;;31.78;37.98;99541.19;5091985;28;20035;-81
2021/08/04 07:41:37;;;;;;;13.57;10.05;;;;;;;31.75;37.44;99519.19;5092572;28;20028;-79
2021/08/04 07:44:03;;;;;;;13.32;10.40;;;;;;;31.90;37.47;99535.91;5090960;28;20044;-81
2021/08/04 07:46:29;;;;;;;13.10;9.40;;;;;;;31.80;37.15;99514.38;5092780;28;20105;-80
2021/08/04 07:48:54;;;;;;;15.75;9.27;;;;;;;31.99;37.12;99530.47;5092199;28;20039;-81
2021/08/04 07:51:19;;;;;;;15.77;9.40;;;;;;;32.12;36.22;99528.72;5090631;28;20496;-77
2021/08/04 07:53:45;;;;;;;10.70;9.55;;;;;;;32.07;36.22;99507.03;5092794;28;20036;-79
2021/08/04 07:56:10;;;;;;;16.60;10.30;;;;;;;32.17;36.32;99515.69;5091179;28;20028;-79
2021/08/04 07:58:36;;;;;;;15.82;9.38;;;;;;;32.33;35.82;99520.72;5093060;28;20506;-80
2021/08/04 08:01:02;;;;;;;14.63;9.10;;;;;;;32.53;35.19;99525.50;5092184;28;20419;-78
2021/08/04 08:03:28;;;;;;;12.70;9.68;;;;;;;32.52;34.91;99488.38;5092648;28;20051;-80
2021/08/04 08:05:53;;;;;;;12.38;9.27;;;;;;;32.80;35.17;99524.38;5092210;28;20116;-80
2021/08/04 08:08:18;;;;;;;14.82;12.48;;;;;;;32.64;34.69;99474.81;5092869;28;20102;-80
2021/08/04 08:10:46;;;;;;;15.25;12.02;;;;;;;33.02;34.13;99504.19;5092318;28;20028;-80
2021/08/04 08:13:12;;;;;;;15.05;11.75;;;;;;;32.89;34.16;99461.44;5093132;28;20032;-79
2021/08/04 08:15:37;;;;;;;12.98;10.18;;;;;;;33.06;34.09;99477.78;5090940;28;20035;-79
2021/08/04 08:18:10;;;;;;;13.65;8.95;;;;;;;33.42;32.85;99515.63;5086053;28;20440;-80
2021/08/04 08:20:36;;;;;;;9.70;8.25;;;;;;;33.36;32.62;99516.94;5084646;28;20040;-79
2021/08/04 08:23:03;;;;;;;17.02;10.68;;;;;;;33.24;32.56;99506.66;5087078;28;20051;-75
2021/08/04 08:25:28;;;;;;;11.52;9.18;;;;;;;32.85;32.75;99431.22;5090518;28;20044;-77
2021/08/04 08:27:54;;;;;;;13.00;8.43;;;;;;;33.11;32.18;99459.25;5092054;28;20054;-73
2021/08/04 08:30:19;;;;;;;15.55;8.50;;;;;;;33.38;32.11;99490.03;5091700;28;20138;-76
2021/08/04 08:32:48;;;;;;;15.98;9.45;;;;;;;33.54;32.25;99513.00;5092524;28;20034;-74
2021/08/04 08:35:15;;;;;;;14.10;9.57;;;;;;;33.67;32.18;99500.19;5092450;28;20488;-75
2021/08/04 08:37:41;;;;;;;12.30;8.57;;;;;;;33.81;31.60;99506.22;5092161;28;20063;-74
2021/08/04 08:40:07;;;;;;;12.77;8.50;;;;;;;33.34;31.66;99407.81;5089946;28;20108;-75
2021/08/04 08:42:33;;;;;;;13.23;9.25;;;;;;;33.69;31.32;99445.91;5090400;28;20536;-74
2021/08/04 08:44:58;;;;;;;13.90;9.10;;;;;;;34.17;31.68;99497.41;5090900;28;20117;-74
2021/08/04 08:47:24;;;;;;;11.20;8.60;;;;;;;34.28;30.78;99497.84;5091380;28;20099;-74
2021/08/04 08:49:50;;;;;;;13.38;8.05;;;;;;;34.03;30.86;99453.06;5089183;28;20039;-75
2021/08/04 08:52:16;;;;;;;14.40;11.43;;;;;;;34.35;30.65;99489.91;5089840;28;20511;-75
2021/08/04 08:54:41;;;;;;;12.25;10.95;;;;;;;34.21;30.51;99438.09;5090714;28;20107;-74
2021/08/04 08:57:07;;;;;;;23.67;21.08;;;;;;;34.66;30.80;99482.00;5091537;28;20048;-73
2021/08/04 08:59:32;;;;;;;16.10;12.60;;;;;;;34.49;30.41;99427.34;5087251;28;20502;-73
2021/08/04 09:01:58;;;;;;;10.98;8.48;;;;;;;35.02;29.71;99480.50;5087742;28;20473;-75
2021/08/04 09:04:23;;;;;;;14.15;10.65;;;;;;;34.66;29.90;99418.91;5090298;28;20032;-74
2021/08/04 09:06:55;;;;;;;11.40;9.13;;;;;;;34.91;29.55;99427.19;5091390;28;20103;-75
2021/08/04 09:09:32;;;;;;;11.80;9.57;;;;;;;35.38;29.54;99474.22;5090394;28;20039;-75
2021/08/04 09:12:09;;;;;;;10.70;9.60;;;;;;;35.54;28.54;99460.59;5090670;28;20462;-74
2021/08/04 09:14:36;;;;;;;10.15;7.15;;;;;;;35.74;28.54;99451.41;5076132;28;20024;-74
2021/08/04 09:17:07;;;;;;;11.20;9.40;;;;;;;35.92;27.92;99454.69;5089356;28;20020;-75
2021/08/04 09:19:34;;;;;;;11.75;7.70;;;;;;;35.85;27.50;99421.53;5091302;28;20020;-74
2021/08/04 09:22:24;;;;;;;10.07;8.52;;;;;;;36.24;27.88;99447.34;5089029;28;20103;-74
2021/08/04 09:24:53;;;;;;;11.55;9.30;;;;;;;36.44;27.81;99440.06;5081822;28;20113;-79
2021/08/04 09:27:19;;;;;;;8.47;7.67;;;;;;;36.62;27.23;99448.78;5089787;28;20040;-79
2021/08/04 09:29:59;;;;;;;13.05;7.90;;;;;;;36.74;27.18;99435.75;5090227;28;20034;-78
2021/08/04 09:32:26;;;;;;;13.70;8.30;;;;;;;36.83;27.22;99430.09;5090094;28;20024;-79
2021/08/04 09:34:52;;;;;;;14.48;8.35;;;;;;;36.92;26.71;99414.19;5091437;28;20462;-77
2021/08/04 09:37:19;;;;;;;10.70;8.40;;;;;;;37.09;25.88;99426.78;5085281;28;20484;-78
2021/08/04 09:39:50;;;;;;;10.70;8.10;;;;;;;37.14;25.33;99427.28;5088202;28;20019;-78
2021/08/04 09:42:16;;;;;;;12.38;9.07;;;;;;;37.25;25.20;99422.09;5089366;28;20101;-79
2021/08/04 09:44:58;;;;;;;10.98;7.50;;;;;;;37.34;24.65;99416.38;5088760;28;20468;-77
2021/08/04 09:47:24;;;;;;;11.80;8.38;;;;;;;37.35;25.03;99418.78;5088240;28;20038;-78
2021/08/04 09:50:01;;;;;;;10.35;7.35;;;;;;;37.34;24.95;99399.84;5079289;28;20036;-79
2021/08/04 09:52:30;;;;;;;10.88;7.55;;;;;;;37.57;25.14;99409.00;5087740;28;20039;-78
2021/08/04 09:55:10;;;;;;;11.80;7.40;;;;;;;37.77;24.40;99399.63;5078053;28;20577;-77
2021/08/04 09:57:40;;;;;;;11.63;7.30;;;;;;;37.66;24.63;99379.28;5061308;28;20024;-78
2021/08/04 10:00:11;;;;;;;12.35;7.18;;;;;;;37.95;22.79;99404.72;5069223;28;20112;-78
2021/08/04 10:02:37;;;;;;;12.93;9.23;;;;;;;37.94;23.38;99392.09;5067515;28;20447;-78
2021/08/04 10:05:16;;;;;;;9.35;6.95;;;;;;;38.13;23.06;99392.06;5063686;28;20036;-78
2021/08/04 10:08:07;;;;;;;10.50;7.07;;;;;;;38.24;22.30;99395.84;5065239;28;20570;-78
2021/08/04 10:10:55;;;;;;;13.45;7.32;;;;;;;38.34;22.26;99384.19;5069199;28;20028;-79
2021/08/04 10:13:23;;;;;;;9.20;7.10;;;;;;;38.42;23.21;99382.34;5070033;28;20566;-78
2021/08/04 10:15:52;;;;;;;11.23;7.75;;;;;;;38.37;23.01;99338.53;5065707;28;20089;-79
2021/08/04 10:18:21;;;;;;;13.82;7.13;;;;;;;38.78;22.44;99372.75;5068958;28;20582;-78
2021/08/04 10:20:49;;;;;;;11.70;7.40;;;;;;;38.92;22.36;99374.94;5067743;28;20021;-77
2021/08/04 10:23:18;;;;;;;11.30;7.90;;;;;;;38.74;22.37;99342.34;5053130;28;20457;-75
2021/08/04 10:25:44;;;;;;;10.57;6.55;;;;;;;39.08;22.05;99370.06;5084579;28;20052;-75
2021/08/04 10:28:11;;;;;;;9.75;6.88;;;;;;;38.74;22.03;99302.91;5089540;28;20089;-75
2021/08/04 10:30:37;;;;;;;12.75;6.85;;;;;;;38.99;21.63;99337.19;5088974;28;20028;-74
2021/08/04 10:33:04;;;;;;;11.02;7.30;;;;;;;39.22;21.48;99369.47;5088858;28;20016;-75
2021/08/04 10:35:30;;;;;;;10.30;6.65;;;;;;;39.13;21.29;99331.09;5089243;28;20028;-74
2021/08/04 10:37:56;;;;;;;13.65;7.68;;;;;;;39.33;21.20;99323.44;5079855;28;20039;-74
2021/08/04 10:40:28;;;;;;;12.00;6.85;;;;;;;39.71;20.83;99339.75;5076957;28;20405;-74
2021/08/04 10:42:54;;;;;;;9.50;6.80;;;;;;;39.58;20.99;99313.53;5089054;28;20039;-74
2021/08/04 10:45:28;;;;;;;12.05;10.80;;;;;;;40.02;20.64;99351.53;5090354;28;20028;-75
2021/08/04 10:48:22;;;;;;;11.05;6.70;;;;;;;40.13;20.44;99351.66;5093231;28;20442;-74
2021/08/04 10:51:25;;;;;;;9.57;6.68;;;;;;;40.26;20.46;99344.69;5099136;28;20065;-73
2021/08/04 10:54:00;;;;;;;11.30;6.57;;;;;;;40.39;20.09;99342.44;5090137;28;20019;-74
2021/08/04 10:56:31;;;;;;;12.13;6.60;;;;;;;40.46;20.13;99340.53;5093331;28;20031;-75
2021/08/04 10:59:09;;;;;;;15.73;8.10;;;;;;;40.63;19.63;99339.06;5090165;28;20415;-74
2021/08/04 11:01:37;;;;;;;14.73;7.00;;;;;;;40.80;19.65;99329.34;5102712;28;20042;-74
2021/08/04 11:04:04;;;;;;;12.40;8.10;;;;;;;40.81;19.08;99333.69;5089723;28;20055;-76
2021/08/04 11:06:30;;;;;;;9.15;5.80;;;;;;;40.82;18.65;99329.75;5085894;28;20035;-74
2021/08/04 11:09:14;;;;;;;13.85;6.10;;;;;;;40.80;17.53;99321.03;5081300;28;20024;-76
2021/08/04 11:12:01;;;;;;;11.25;5.90;;;;;;;40.56;17.94;99303.84;5091260;28;20035;-76
2021/08/04 11:14:46;;;;;;;11.20;5.97;;;;;;;40.86;17.86;99328.59;5084530;28;20036;-75
2021/08/04 11:17:14;;;;;;;10.98;5.75;;;;;;;41.06;17.37;99317.25;5083180;28;20024;-76
2021/08/04 11:22:26;;;;;;;10.70;6.32;;;;;;;41.38;17.24;99317.41;5093215;28;20043;-75
2021/08/04 11:24:57;;;;;;;11.85;5.68;;;;;;;41.14;17.26;99266.22;5090314;28;20051;-76
2021/08/04 11:27:25;;;;;;;12.43;5.75;;;;;;;41.59;17.16;99304.41;5085265;28;20024;-78
2021/08/04 11:29:52;;;;;;;11.10;5.85;;;;;;;41.76;16.98;99302.13;5089085;28;20031;-79
2021/08/04 11:32:22;;;;;;;8.27;5.68;;;;;;;41.82;17.26;99303.31;5089036;28;20076;-79
2021/08/04 11:34:48;;;;;;;8.63;5.10;;;;;;;42.01;16.51;99299.38;5078613;28;20025;-79
2021/08/04 11:37:14;;;;;;;12.73;7.03;;;;;;;42.10;16.49;99292.28;5085232;28;20064;-80
2021/08/04 11:39:53;;;;;;;10.57;4.70;;;;;;;42.23;16.53;99284.34;5096606;28;20454;-77
2021/08/04 11:42:19;;;;;;;12.07;7.05;;;;;;;42.23;16.63;99284.34;5092171;28;20059;-79
2021/08/04 11:44:45;;;;;;;11.05;6.45;;;;;;;42.14;16.53;99254.25;5092090;28;20028;-79
2021/08/04 11:47:11;;;;;;;12.95;6.82;;;;;;;42.33;16.72;99269.69;5092454;28;20093;-77
2021/08/04 11:49:41;;;;;;;12.68;6.28;;;;;;;42.10;16.77;99255.44;5092031;28;20401;-77
2021/08/04 11:52:11;;;;;;;11.93;7.65;;;;;;;42.24;17.00;99271.28;5106200;28;20491;-77
2021/08/04 11:54:59;;;;;;;12.38;6.25;;;;;;;42.34;16.58;99270.47;5094234;28;20495;-78
2021/08/04 11:57:27;;;;;;;10.10;5.78;;;;;;;42.52;16.80;99268.53;5087881;28;20043;-78
2021/08/04 11:59:58;;;;;;;10.20;5.45;;;;;;;42.66;16.66;99273.25;5080833;28;20416;-78
2021/08/04 12:02:25;;;;;;;9.18;6.07;;;;;;;42.79;16.13;99268.84;5090497;28;20500;-79
2021/08/04 12:04:53;;;;;;;11.27;5.20;;;;;;;42.80;16.22;99268.44;5090940;28;20031;-79
2021/08/04 12:07:21;;;;;;;9.48;5.53;;;;;;;42.43;16.04;99202.28;5082147;28;20085;-79
2021/08/04 12:09:47;;;;;;;11.25;5.45;;;;;;;42.69;15.95;99233.56;5093198;28;20027;-79
2021/08/04 12:12:16;;;;;;;13.57;6.05;;;;;;;42.96;15.92;99256.13;5099029;28;20442;-79
2021/08/04 12:14:42;;;;;;;8.05;5.63;;;;;;;42.96;15.86;99250.56;5099602;28;20055;-78
2021/08/04 12:17:07;;;;;;;14.18;6.03;;;;;;;43.08;15.83;99253.69;5090427;27;20059;-78
2021/08/04 12:19:35;;;;;;;11.10;5.55;;;;;;;43.13;15.15;99255.28;5094743;28;20057;-79
2021/08/04 12:22:03;;;;;;;8.13;4.72;;;;;;;42.91;15.26;99237.09;5090539;28;20115;-80
2021/08/04 12:24:29;;;;;;;11.05;5.40;;;;;;;42.94;15.25;99239.84;5092109;28;20059;-80
2021/08/04 12:26:55;;;;;;;11.50;4.80;;;;;;;42.86;15.41;99232.75;5091103;28;20051;-78
2021/08/04 12:29:26;;;;;;;10.50;5.15;;;;;;;42.94;15.38;99245.41;5085173;28;20412;-80
2021/08/04 12:32:05;;;;;;;9.77;5.10;;;;;;;42.96;15.13;99243.03;5087447;28;20050;-80
2021/08/04 12:34:31;;;;;;;11.77;5.38;;;;;;;43.01;15.04;99233.47;5091819;28;20070;-78
2021/08/04 12:36:57;;;;;;;11.57;6.00;;;;;;;43.13;15.46;99230.28;5091858;28;20032;-78
2021/08/04 12:39:24;;;;;;;17.05;6.65;;;;;;;43.22;15.15;99241.75;5087570;28;20492;-79
2021/08/04 12:41:49;;;;;;;15.18;7.97;;;;;;;43.36;15.00;99232.56;5090046;28;20050;-80
2021/08/04 12:44:18;;;;;;;10.38;5.70;;;;;;;43.41;14.58;99223.78;5091659;28;20531;-79
2021/08/04 12:46:44;;;;;;;9.93;5.47;;;;;;;43.52;14.67;99224.50;5092144;28;20024;-79
2021/08/04 12:49:17;;;;;;;10.38;4.95;;;;;;;43.59;14.25;99218.13;5088995;28;20089;-79
2021/08/04 12:51:57;;;;;;;12.80;5.50;;;;;;;43.63;14.75;99221.66;5091714;28;20024;-78
2021/08/04 12:54:35;;;;;;;10.30;5.10;;;;;;;43.67;14.67;99219.66;5087427;28;20111;-79
2021/08/04 12:57:17;;;;;;;10.00;5.53;;;;;;;43.54;15.06;99182.41;5089677;28;20555;-78
2021/08/04 12:59:44;;;;;;;13.63;5.95;;;;;;;43.96;15.26;99225.81;5089822;28;20024;-79
2021/08/04 13:02:11;;;;;;;12.23;5.55;;;;;;;43.78;15.33;99191.78;5087899;28;20035;-79
2021/08/04 13:04:41;;;;;;;13.10;5.78;;;;;;;43.99;14.50;99231.34;5090784;28;20028;-79
2021/08/04 13:07:07;;;;;;;11.82;5.75;;;;;;;44.00;14.42;99227.38;5088039;28;20020;-79
2021/08/04 13:09:35;;;;;;;9.50;5.00;;;;;;;43.89;14.57;99225.88;5089274;28;20019;-79
2021/08/04 13:12:18;;;;;;;11.50;5.63;;;;;;;43.19;14.45;99161.97;5091587;28;20020;-79
2021/08/04 13:15:12;;;;;;;10.88;5.40;;;;;;;43.54;14.44;99216.56;5090157;28;20034;-77
2021/08/04 13:17:48;;;;;;;11.18;5.38;;;;;;;43.46;14.44;99215.03;5079149;28;20095;-80
2021/08/04 13:20:28;;;;;;;14.60;6.07;;;;;;;43.20;14.60;99208.00;5090325;28;20034;-79
2021/08/04 13:22:57;;;;;;;12.18;5.00;;;;;;;43.14;14.82;99198.50;5089589;28;20476;-79
2021/08/04 13:25:33;;;;;;;9.70;6.00;;;;;;;43.50;14.56;99210.22;5086881;28;20153;-75
2021/08/04 13:28:35;;;;;;;13.52;5.97;;;;;;;43.51;14.34;99203.47;5089898;28;20032;-73
2021/08/04 13:31:02;;;;;;;10.00;5.80;;;;;;;43.39;14.41;99213.09;5088502;28;20552;-75
2021/08/04 13:33:29;;;;;;;9.15;5.47;;;;;;;43.37;14.42;99214.69;5089397;28;20020;-74
2021/08/04 13:35:57;;;;;;;11.80;5.40;;;;;;;43.31;14.57;99219.09;5089101;28;20043;-72
2021/08/04 13:38:22;;;;;;;9.85;5.53;;;;;;;43.39;14.41;99204.75;5089684;28;20031;-73
2021/08/04 13:40:49;;;;;;;8.48;5.00;;;;;;;43.34;14.48;99213.50;5080753;28;20440;-73
2021/08/04 13:43:15;;;;;;;10.50;5.25;;;;;;;43.37;14.87;99223.81;5077003;28;20020;-73
2021/08/04 13:45:41;;;;;;;9.43;5.18;;;;;;;43.43;14.45;99215.84;5085972;28;20484;-73
2021/08/04 13:48:06;;;;;;;9.45;5.47;;;;;;;43.31;14.72;99207.97;5090423;28;20028;-73
2021/08/04 13:50:33;;;;;;;9.77;5.32;;;;;;;43.07;14.55;99184.63;5090468;28;20081;-73
2021/08/04 13:53:00;;;;;;;11.27;7.30;;;;;;;43.21;14.79;99208.81;5072294;28;20108;-76
2021/08/04 13:55:28;;;;;;;13.45;5.43;;;;;;;43.08;14.41;99186.22;5089205;28;20023;-76
2021/08/04 13:57:53;;;;;;;24.85;7.45;;;;;;;42.92;14.79;99166.47;5087246;28;20036;-73
2021/08/04 14:00:24;;;;;;;13.57;6.53;;;;;;;43.24;14.39;99197.66;5087985;28;20024;-73
2021/08/04 14:02:50;;;;;;;11.38;4.90;;;;;;;42.91;14.25;99162.91;5087942;28;20551;-75
2021/08/04 14:05:17;;;;;;;14.25;5.88;;;;;;;43.24;14.69;99202.44;5086401;28;20028;-74
2021/08/04 14:07:44;;;;;;;13.95;5.47;;;;;;;43.35;14.77;99198.41;5088312;28;20036;-73
2021/08/04 14:10:12;;;;;;;9.77;4.85;;;;;;;43.35;14.77;99192.06;5087864;28;20015;-74
2021/08/04 14:12:38;;;;;;;12.27;5.25;;;;;;;43.40;14.40;99197.97;5084401;28;20116;-74
2021/08/04 14:15:07;;;;;;;9.23;4.88;;;;;;;43.10;14.11;99145.72;5087030;28;20119;-73
2021/08/04 14:17:32;;;;;;;10.48;4.88;;;;;;;43.08;14.10;99141.75;5088479;28;20422;-73
2021/08/04 14:19:58;;;;;;;9.52;4.75;;;;;;;43.25;14.34;99187.34;5093910;28;20035;-75
2021/08/04 14:22:23;;;;;;;14.77;5.93;;;;;;;43.26;14.63;99184.19;5093440;28;20103;-73
2021/08/04 14:24:49;;;;;;;11.52;4.95;;;;;;;43.19;14.17;99178.63;5092100;28;20113;-73
2021/08/04 14:27:15;;;;;;;11.57;7.07;;;;;;;43.19;14.10;99194.53;5093794;28;20020;-75
2021/08/04 14:29:41;;;;;;;13.20;7.78;;;;;;;43.05;14.62;99182.25;5086119;28;20020;-75
2021/08/04 14:32:08;;;;;;;13.57;6.65;;;;;;;42.76;14.23;99153.03;5092489;28;20560;-73
2021/08/04 14:34:34;;;;;;;11.20;6.43;;;;;;;42.71;14.45;99148.69;5089368;28;20048;-74
2021/08/04 14:37:00;;;;;;;11.75;5.28;;;;;;;42.70;14.23;99141.53;5092584;28;20138;-75
2021/08/04 14:39:25;;;;;;;10.32;5.00;;;;;;;42.54;14.38;99132.88;5092090;28;20050;-75
2021/08/04 14:41:51;;;;;;;13.13;5.30;;;;;;;42.80;14.22;99174.03;5102372;28;20055;-76
2021/08/04 14:44:16;;;;;;;11.80;5.03;;;;;;;42.65;14.41;99143.94;5090864;28;20020;-73
2021/08/04 14:46:42;;;;;;;11.63;5.30;;;;;;;42.41;13.90;99115.84;5092886;28;20484;-74
2021/08/04 14:49:07;;;;;;;10.90;5.15;;;;;;;42.68;14.04;99163.38;5093641;28;20024;-74
2021/08/04 14:51:34;;;;;;;17.27;9.90;;;;;;;42.42;14.42;99150.75;5094235;28;20028;-73
2021/08/04 14:54:00;;;;;;;12.43;5.68;;;;;;;42.51;14.22;99164.22;5093349;28;20085;-74
2021/08/04 14:56:25;;;;;;;11.75;7.35;;;;;;;42.11;14.44;99118.31;5082491;28;20221;-74
2021/08/04 14:58:51;;;;;;;11.30;5.30;;;;;;;41.95;14.50;99106.81;5092747;28;20027;-72
2021/08/04 15:01:17;;;;;;;10.73;4.70;;;;;;;42.03;14.54;99127.81;5093252;28;20020;-76
2021/08/04 15:03:43;;;;;;;10.55;5.13;;;;;;;41.77;14.87;99109.63;5092484;28;20019;-75
2021/08/04 15:06:08;;;;;;;10.65;4.80;;;;;;;42.06;14.81;99147.25;5093603;28;20043;-75
2021/08/04 15:08:35;;;;;;;11.45;5.10;;;;;;;41.83;14.98;99144.06;5090292;28;20542;-73
2021/08/04 15:11:01;;;;;;;9.45;5.70;;;;;;;41.63;15.25;99140.91;5090788;28;20064;-73
2021/08/04 15:13:27;;;;;;;10.80;6.80;;;;;;;41.12;15.51;99099.63;5074692;28;20512;-76
2021/08/04 15:15:53;;;;;;;12.52;4.72;;;;;;;41.26;15.63;99135.69;5074004;28;20048;-75
2021/08/04 15:18:19;;;;;;;14.07;8.35;;;;;;;40.69;15.67;99082.06;5073892;28;20059;-72
2021/08/04 15:20:45;;;;;;;9.02;5.38;;;;;;;41.04;15.67;99132.06;5074002;28;20074;-75
2021/08/04 15:23:10;;;;;;;11.23;5.13;;;;;;;40.73;15.67;99102.25;5074007;28;20028;-79
2021/08/04 15:25:36;;;;;;;11.50;4.80;;;;;;;40.68;15.52;99114.50;5073476;28;20086;-79
2021/08/04 15:28:02;;;;;;;15.25;5.20;;;;;;;40.63;15.34;99101.84;5073627;28;20021;-78
2021/08/04 15:30:28;;;;;;;10.98;5.00;;;;;;;40.42;15.14;99085.16;5072682;28;20509;-78
2021/08/04 15:32:54;;;;;;;8.65;4.57;;;;;;;40.62;15.68;99125.16;5073509;28;20020;-79
2021/08/04 15:35:20;;;;;;;11.38;5.07;;;;;;;40.57;15.31;99136.59;5072197;28;20099;-79
2021/08/04 15:37:46;;;;;;;14.40;8.55;;;;;;;40.46;15.33;99137.72;5073283;28;20104;-77
2021/08/04 15:40:12;;;;;;;18.15;11.40;;;;;;;40.41;15.80;99132.56;5073309;28;20162;-79
2021/08/04 15:42:37;;;;;;;11.82;6.90;;;;;;;40.38;15.74;99133.34;5073615;28;20058;-78
2021/08/04 15:45:03;;;;;;;12.27;5.85;;;;;;;40.32;15.94;99136.44;5073490;28;20534;-78
2021/08/04 15:47:29;;;;;;;8.00;4.72;;;;;;;40.17;15.61;99137.56;5073546;28;20020;-79
2021/08/04 15:49:54;;;;;;;10.93;4.68;;;;;;;39.96;15.82;99121.59;5073373;28;20025;-78
2021/08/04 15:52:19;;;;;;;9.80;5.50;;;;;;;40.01;15.96;99137.81;5073275;28;20095;-77
2021/08/04 15:54:45;;;;;;;9.05;5.15;;;;;;;39.65;16.22;99097.25;5073295;28;20027;-78
2021/08/04 15:57:10;;;;;;;11.68;5.28;;;;;;;39.93;16.33;99147.25;5073080;28;20028;-76
2021/08/04 15:59:36;;;;;;;10.02;4.57;;;;;;;39.87;15.68;99134.13;5072980;28;20023;-79
2021/08/04 16:02:01;;;;;;;11.57;5.82;;;;;;;39.83;15.90;99136.09;5073122;28;20489;-78
2021/08/04 16:04:27;;;;;;;15.93;8.25;;;;;;;39.54;16.09;99094.41;5072989;28;20028;-78
2021/08/04 16:06:52;;;;;;;11.52;6.90;;;;;;;39.47;16.67;99094.31;5073007;28;20028;-78
2021/08/04 16:09:18;;;;;;;11.00;5.32;;;;;;;39.71;16.55;99137.97;5072676;28;20086;-78
2021/08/04 16:11:44;;;;;;;11.57;7.07;;;;;;;39.50;16.97;99125.94;5072836;28;20501;-79
2021/08/04 16:14:09;;;;;;;11.93;6.47;;;;;;;39.55;17.41;99145.72;5072948;28;20462;-79
2021/08/04 16:16:36;;;;;;;12.93;5.65;;;;;;;39.51;17.27;99150.44;5072704;28;20481;-77
2021/08/04 16:19:01;;;;;;;11.80;5.53;;;;;;;39.50;17.27;99153.59;5072810;28;20032;-78
2021/08/04 16:21:27;;;;;;;10.73;7.10;;;;;;;39.37;17.67;99139.19;5071469;28;20440;-79
2021/08/04 16:23:52;;;;;;;10.65;5.18;;;;;;;39.38;17.46;99149.88;5072455;28;20027;-79
2021/08/04 16:26:18;;;;;;;13.70;5.32;;;;;;;39.34;17.89;99153.78;5072442;28;20088;-78
2021/08/04 16:28:43;;;;;;;12.32;6.25;;;;;;;39.31;17.82;99160.06;5072457;28;20052;-78
2021/08/04 16:31:11;;;;;;;12.60;6.43;;;;;;;39.27;18.42;99160.03;5072532;28;20020;-78
2021/08/04 16:33:38;;;;;;;13.10;5.40;;;;;;;39.20;18.37;99165.47;5072309;28;20468;-77
2021/08/04 16:36:05;;;;;;;14.88;5.50;;;;;;;39.08;18.21;99162.97;5072373;28;20111;-77
2021/08/04 16:38:31;;;;;;;11.50;6.75;;;;;;;38.68;18.36;99133.31;5071172;28;20554;-79
2021/08/04 16:40:57;;;;;;;11.25;7.07;;;;;;;38.59;18.38;99141.00;5071438;28;20489;-79
2021/08/04 16:43:22;;;;;;;10.23;6.15;;;;;;;38.55;18.60;99140.97;5070577;28;20120;-79
2021/08/04 16:45:48;;;;;;;10.90;6.45;;;;;;;38.62;19.24;99165.91;5072148;28;20104;-79
2021/08/04 16:48:14;;;;;;;13.90;6.60;;;;;;;38.53;18.68;99159.84;5072093;28;20028;-79
2021/08/04 16:50:40;;;;;;;14.27;6.10;;;;;;;38.49;18.95;99164.53;5072142;28;20077;-79
2021/08/04 16:53:06;;;;;;;13.27;5.45;;;;;;;38.41;19.20;99166.41;5072188;28;20024;-78
2021/08/04 16:55:31;;;;;;;15.20;5.40;;;;;;;38.32;19.40;99165.88;5072299;28;20039;-78
2021/08/04 16:58:03;;;;;;;10.75;6.07;;;;;;;38.01;19.19;99133.88;5072540;28;20020;-78
2021/08/04 17:00:29;;;;;;;14.70;5.30;;;;;;;38.23;19.55;99172.84;5072186;28;20024;-79
2021/08/04 17:02:55;;;;;;;15.65;5.47;;;;;;;38.15;19.67;99163.66;5072068;28;20020;-78
2021/08/04 17:05:21;;;;;;;19.85;10.48;;;;;;;38.10;19.94;99169.47;5072133;28;20078;-78
2021/08/04 17:07:47;;;;;;;19.10;7.35;;;;;;;38.04;19.95;99168.19;5072168;28;20035;-78
2021/08/04 17:10:13;;;;;;;14.65;7.03;;;;;;;37.96;20.07;99166.50;5070590;28;20036;-76
2021/08/04 17:12:39;;;;;;;17.67;6.47;;;;;;;37.86;20.14;99159.63;5071999;28;20024;-78
2021/08/04 17:15:06;;;;;;;16.42;5.82;;;;;;;37.85;20.37;99171.81;5071782;28;20024;-79
2021/08/04 17:17:36;;;;;;;16.50;6.35;;;;;;;37.77;20.39;99168.13;5071911;28;20101;-77
2021/08/04 17:20:04;;;;;;;10.30;6.03;;;;;;;37.65;20.56;99162.78;5071972;28;20437;-78
2021/08/04 17:22:29;;;;;;;16.65;8.05;;;;;;;37.31;20.84;99116.94;5070136;28;20064;-78
2021/08/04 17:24:55;;;;;;;13.00;8.80;;;;;;;37.59;21.10;99178.03;5071502;28;20115;-74
2021/08/04 17:27:20;;;;;;;42.92;21.60;;;;;;;37.50;21.30;99174.72;5071514;28;20028;-75
2021/08/04 17:29:45;;;;;;;48.88;26.63;;;;;;;37.49;21.64;99186.91;5071666;28;20035;-75
2021/08/04 17:32:11;;;;;;;23.98;11.80;;;;;;;37.30;20.94;99168.47;5070244;28;20028;-75
2021/08/04 17:34:36;;;;;;;19.40;9.85;;;;;;;37.20;21.05;99180.84;5071317;28;20012;-75
2021/08/04 17:37:02;;;;;;;19.52;6.60;;;;;;;37.20;21.21;99197.38;5071514;28;20044;-75
2021/08/04 17:39:28;;;;;;;18.02;10.45;;;;;;;37.06;21.43;99188.00;5071656;28;20036;-74
2021/08/04 17:41:54;;;;;;;12.45;6.60;;;;;;;36.75;22.00;99155.91;5071227;28;20020;-73
2021/08/04 17:44:20;;;;;;;11.50;7.22;;;;;;;36.93;22.25;99203.88;5071289;28;21416;-74
2021/08/04 17:46:45;;;;;;;12.10;7.20;;;;;;;36.83;22.65;99201.69;5071283;28;20138;-74
2021/08/04 17:49:12;;;;;;;15.40;8.43;;;;;;;36.77;22.78;99209.44;5071344;28;20095;-73
2021/08/04 17:51:37;;;;;;;15.15;7.30;;;;;;;36.57;23.19;99186.59;5069939;28;20048;-75
2021/08/04 17:54:03;;;;;;;15.20;7.38;;;;;;;36.36;23.56;99149.53;5071047;28;20124;-75
2021/08/04 17:56:29;;;;;;;12.23;7.40;;;;;;;36.63;23.53;99213.81;5071329;28;20021;-76